Flight Track Log - Related Links

Times and Time Zones

All times are in EDT time to prevent confusion due to time zone crossing. See the ASA246 flight status page for this flight to view local times or setup timezone preferences in your user account.

Time Position Orientation Groundspeed Altitude Reporting Facility
EDT Latitude Longitude Course Direction KTS MPH feet Rate Location/Type
Sun 03:08:48 PM 37.6322 -122.4061 180° South 159 183 1,700  Level Oakland Center
Sun 03:09:23 PM 37.6500 -122.4500 297° West 207 238 2,800 2,147 Climbing Northern Cal TRACON
Sun 03:10:23 PM 37.6667 -122.5167 288° West 249 287 5,100 2,658 Climbing Northern Cal TRACON
Sun 03:11:52 PM 37.5786 -122.5497 197° South 261 300 9,400 2,384 Climbing Oakland Center
Sun 03:12:54 PM 37.5022 -122.5522 181° South 271 312 11,100 1,707 Climbing Oakland Center
Sun 03:13:55 PM 37.4050 -122.5564 182° South 337 388 12,900 2,164 Climbing Oakland Center
Sun 03:14:00 PM 37.0402 -122.5500 180° South  Level FlightAware Approximate
Sun 03:14:56 PM 37.3022 -122.5606 182° South 361 415 15,500  Level Oakland Center
Sun 03:15:58 PM 37.1717 -122.5644 181° South 386 444 18,300 2,341 Climbing Oakland Center
Sun 03:16:59 PM 37.0589 -122.5681 181° South 401 461 20,300 2,244 Climbing Oakland Center
Sun 03:18:01 PM 36.9419 -122.5681 180° South 421 484 22,900 2,049 Climbing Oakland Center
Sun 03:19:02 PM 36.8258 -122.5344 167° South 430 495 24,500 1,574 Climbing Oakland Center
Sun 03:20:03 PM 36.7050 -122.5028 168° South 441 507 26,100 1,756 Climbing Oakland Center
Sun 03:21:05 PM 36.5936 -122.4378 155° Southeast 453 521 28,100 1,854 Climbing Oakland Center
Sun 03:22:06 PM 36.5181 -122.3122 127° Southeast 456 525 29,900 1,707 Climbing Oakland Center
Sun 03:23:08 PM 36.4411 -122.1908 128° Southeast 450 518 31,600 1,512 Climbing Oakland Center
Sun 03:24:09 PM 36.3503 -122.0461 128° Southeast 445 512 33,000 689 Climbing Oakland Center
Sun 03:25:10 PM 36.2736 -121.9272 129° Southeast 443 510 33,000  Level Oakland Center
Sun 03:26:12 PM 36.1986 -121.8069 128° Southeast 443 510 33,000  Level Oakland Center
Sun 03:27:13 PM 36.1281 -121.6975 129° Southeast 444 511 33,000  Level Oakland Center
Sun 03:28:15 PM 36.0353 -121.5567 129° Southeast 443 510 33,000  Level Oakland Center
Sun 03:29:16 PM 35.9597 -121.4367 128° Southeast 443 510 33,000  Level Oakland Center
Sun 03:30:18 PM 35.8831 -121.3192 129° Southeast 442 509 33,000  Level Oakland Center
Sun 03:31:19 PM 35.8064 -121.2019 129° Southeast 441 507 33,000  Level Oakland Center
Sun 03:32:20 PM 35.7300 -121.0839 129° Southeast 441 507 33,000  Level Oakland Center
Sun 03:33:22 PM 35.6522 -120.9656 129° Southeast 444 511 33,000  Level Oakland Center
Sun 03:34:23 PM 35.5750 -120.8492 129° Southeast 443 510 33,000  Level Oakland Center
Sun 03:35:25 PM 35.4975 -120.7303 129° Southeast 446 513 33,000  Level Oakland Center
Sun 03:36:26 PM 35.4039 -120.5919 130° Southeast 445 512 33,000  Level Oakland Center
Sun 03:37:28 PM 35.3386 -120.4942 129° Southeast 448 516 33,000  Level Oakland Center
Sun 03:37:53 PM 35.2914 -120.4208 128° Southeast 452 520 33,000  Level Los Angeles Center
Sun 03:38:55 PM 35.2136 -120.3014 129° Southeast 449 517 33,000  Level Los Angeles Center
Sun 03:39:57 PM 35.1353 -120.1831 129° Southeast 446 513 33,000  Level Los Angeles Center
Sun 03:40:59 PM 35.0489 -120.0544 129° Southeast 448 516 33,000  Level Los Angeles Center
Sun 03:42:01 PM 34.9708 -119.9381 129° Southeast 445 512 33,000  Level Los Angeles Center
Sun 03:43:03 PM 34.8906 -119.8211 130° Southeast 449 517 33,000  Level Los Angeles Center
Sun 03:44:05 PM 34.8122 -119.7033 129° Southeast 449 517 33,000  Level Los Angeles Center
Sun 03:45:07 PM 34.7344 -119.5861 129° Southeast 447 514 33,000  Level Los Angeles Center
Sun 03:46:10 PM 34.6389 -119.4456 130° Southeast 450 518 33,000  Level Los Angeles Center
Sun 03:47:11 PM 34.5797 -119.3633 131° Southeast 446 513 33,000  Level Los Angeles Center
Sun 03:48:14 PM 34.4844 -119.2247 130° Southeast 446 513 33,000  Level Los Angeles Center
Sun 03:49:16 PM 34.4044 -119.1100 130° Southeast 447 514 33,000  Level Los Angeles Center
Sun 03:50:18 PM 34.3089 -118.9728 130° Southeast 444 511 33,000  Level Los Angeles Center
Sun 03:51:20 PM 34.2297 -118.8594 130° Southeast 442 509 33,000  Level Los Angeles Center
Sun 03:52:22 PM 34.1517 -118.7453 130° Southeast 442 509 33,000  Level Los Angeles Center
Sun 03:53:24 PM 34.0722 -118.6319 130° Southeast 442 509 33,000  Level Los Angeles Center
Sun 03:54:26 PM 33.9922 -118.5175 130° Southeast 444 511 33,000  Level Los Angeles Center
Sun 03:55:28 PM 33.9111 -118.4064 131° Southeast 441 507 33,000  Level Los Angeles Center
Sun 03:56:31 PM 33.8108 -118.2972 138° Southeast 447 514 33,000  Level Los Angeles Center
Sun 03:57:33 PM 33.7172 -118.1972 138° Southeast 450 518 33,000  Level Los Angeles Center
Sun 03:58:35 PM 33.6033 -118.0739 138° Southeast 456 525 33,000  Level Los Angeles Center
Sun 03:59:37 PM 33.5081 -117.9744 139° Southeast 455 524 33,000  Level Los Angeles Center
Sun 04:00:39 PM 33.4147 -117.8753 138° Southeast 451 519 33,000  Level Los Angeles Center
Sun 04:01:41 PM 33.3206 -117.7761 139° Southeast 451 519 33,000  Level Los Angeles Center
Sun 04:02:43 PM 33.2264 -117.6761 138° Southeast 452 520 33,000  Level Los Angeles Center
Sun 04:03:45 PM 33.1336 -117.5783 139° Southeast 449 517 33,000  Level Los Angeles Center
Sun 04:04:47 PM 33.0222 -117.4589 138° Southeast 448 516 33,000  Level Los Angeles Center
Sun 04:05:49 PM 32.9303 -117.3608 138° Southeast 445 512 33,000  Level Los Angeles Center
Sun 04:06:52 PM 32.8358 -117.2622 139° Southeast 449 517 33,000  Level Los Angeles Center
Sun 04:07:54 PM 32.7456 -117.1672 138° Southeast 447 514 33,000  Level Los Angeles Center
Sun 04:08:56 PM 32.6497 -117.0669 139° Southeast 458 527 33,000  Level Los Angeles Center
Sun 04:09:58 PM 32.5358 -116.9522 140° Southeast 452 520 33,000  Level Los Angeles Center
Sun 04:11:00 PM 32.4229 -116.8944 157° South  Level FlightAware Approximate
Sun 04:18:00 PM 31.6586 -116.5140 157° South  Level FlightAware Approximate
Sun 04:19:00 PM 31.5493 -116.4601 157° South  Level FlightAware Approximate
Sun 04:20:00 PM 31.4400 -116.4064 157° South  Level FlightAware Approximate
Sun 04:21:00 PM 31.3306 -116.3528 157° South  Level FlightAware Approximate
Sun 04:22:00 PM 31.2213 -116.2993 157° South  Level FlightAware Approximate
Sun 04:23:00 PM 31.1119 -116.2460 157° South  Level FlightAware Approximate
Sun 04:24:00 PM 31.0025 -116.1928 157° South  Level FlightAware Approximate
Sun 04:25:00 PM 30.8931 -116.1397 157° South  Level FlightAware Approximate
Sun 04:26:00 PM 30.7836 -116.0867 157° South  Level FlightAware Approximate
Sun 04:27:00 PM 30.6742 -116.0338 157° South  Level FlightAware Approximate
Sun 04:28:00 PM 30.5647 -115.9811 157° South  Level FlightAware Approximate
Sun 04:29:00 PM 30.4667 -115.9091 133° Southeast  Level FlightAware Approximate
Sun 04:30:00 PM 30.3851 -115.8094 133° Southeast  Level FlightAware Approximate
Sun 04:31:00 PM 30.3035 -115.7098 133° Southeast  Level FlightAware Approximate
Sun 04:32:00 PM 30.2218 -115.6104 134° Southeast  Level FlightAware Approximate
Sun 04:33:00 PM 30.1401 -115.5111 134° Southeast  Level FlightAware Approximate
Sun 04:34:00 PM 30.0583 -115.4120 134° Southeast  Level FlightAware Approximate
Sun 04:35:00 PM 29.9763 -115.3131 134° Southeast  Level FlightAware Approximate
Sun 04:36:00 PM 29.8944 -115.2143 134° Southeast  Level FlightAware Approximate
Sun 04:37:00 PM 29.8123 -115.1157 134° Southeast  Level FlightAware Approximate
Sun 04:38:00 PM 29.7302 -115.0173 134° Southeast  Level FlightAware Approximate
Sun 04:39:00 PM 29.6480 -114.9190 134° Southeast  Level FlightAware Approximate
Sun 04:40:00 PM 29.5657 -114.8209 134° Southeast  Level FlightAware Approximate
Sun 04:41:00 PM 29.4834 -114.7229 134° Southeast  Level FlightAware Approximate
Sun 04:42:00 PM 29.4014 -114.6246 134° Southeast  Level FlightAware Approximate
Sun 04:43:00 PM 29.3197 -114.5261 134° Southeast  Level FlightAware Approximate
Sun 04:44:00 PM 29.2379 -114.4277 134° Southeast  Level FlightAware Approximate
Sun 04:45:00 PM 29.1561 -114.3296 134° Southeast  Level FlightAware Approximate
Sun 04:46:00 PM 29.0742 -114.2315 134° Southeast  Level FlightAware Approximate
Sun 04:47:00 PM 28.9922 -114.1336 134° Southeast  Level FlightAware Approximate
Sun 04:48:00 PM 28.9088 -114.0374 136° Southeast  Level FlightAware Approximate
Sun 04:49:00 PM 28.8239 -113.9429 136° Southeast  Level FlightAware Approximate
Sun 04:50:00 PM 28.7390 -113.8486 136° Southeast  Level FlightAware Approximate
Sun 04:51:00 PM 28.6540 -113.7545 136° Southeast  Level FlightAware Approximate
Sun 04:52:00 PM 28.5692 -113.6601 136° Southeast  Level FlightAware Approximate
Sun 04:53:00 PM 28.4844 -113.5659 136° Southeast  Level FlightAware Approximate
Sun 04:54:00 PM 28.3996 -113.4717 136° Southeast  Level FlightAware Approximate
Sun 04:55:00 PM 28.3154 -113.3770 135° Southeast  Level FlightAware Approximate
Sun 04:56:00 PM 28.2318 -113.2816 137° Southeast  Level FlightAware Approximate
Sun 04:57:00 PM 28.1455 -113.1894 137° Southeast  Level FlightAware Approximate
Sun 04:58:00 PM 28.0592 -113.0974 137° Southeast  Level FlightAware Approximate
Sun 04:59:00 PM 27.9731 -113.0051 135° Southeast  Level FlightAware Approximate
Sun 05:00:00 PM 27.8890 -112.9105 135° Southeast  Level FlightAware Approximate
Sun 05:01:00 PM 27.8039 -112.8173 137° Southeast  Level FlightAware Approximate
Sun 05:02:00 PM 27.7177 -112.7254 137° Southeast  Level FlightAware Approximate
Sun 05:03:00 PM 27.6315 -112.6335 137° Southeast  Level FlightAware Approximate
Sun 05:04:00 PM 27.5465 -112.5404 135° Southeast  Level FlightAware Approximate
Sun 05:05:00 PM 27.4622 -112.4465 135° Southeast  Level FlightAware Approximate
Sun 05:06:00 PM 27.3778 -112.3528 135° Southeast  Level FlightAware Approximate
Sun 05:07:00 PM 27.2919 -112.2612 149° Southeast  Level FlightAware Approximate
Sun 05:08:00 PM 27.1899 -112.1933 149° Southeast  Level FlightAware Approximate
Sun 05:09:00 PM 27.0889 -112.1236 148° Southeast  Level FlightAware Approximate
Sun 05:10:00 PM 26.9885 -112.0530 148° Southeast  Level FlightAware Approximate
Sun 05:11:00 PM 26.8880 -111.9825 148° Southeast  Level FlightAware Approximate
Sun 05:12:00 PM 26.7875 -111.9121 148° Southeast  Level FlightAware Approximate
Sun 05:13:00 PM 26.6870 -111.8418 148° Southeast  Level FlightAware Approximate
Sun 05:14:00 PM 26.5864 -111.7717 148° Southeast  Level FlightAware Approximate
Sun 05:15:00 PM 26.4858 -111.7017 148° Southeast  Level FlightAware Approximate
Sun 05:16:00 PM 26.3867 -111.6290 147° Southeast  Level FlightAware Approximate
Sun 05:17:00 PM 26.2876 -111.5564 147° Southeast  Level FlightAware Approximate
Sun 05:18:00 PM 26.1878 -111.4853 148° Southeast  Level FlightAware Approximate
Sun 05:19:00 PM 26.0870 -111.4159 148° Southeast  Level FlightAware Approximate
Sun 05:20:00 PM 25.9861 -111.3466 148° Southeast  Level FlightAware Approximate
Sun 05:21:00 PM 25.9056 -111.2513 130° Southeast  Level FlightAware Approximate
Sun 05:22:00 PM 25.8300 -111.1499 130° Southeast  Level FlightAware Approximate
Sun 05:23:00 PM 25.7543 -111.0486 130° Southeast  Level FlightAware Approximate
Sun 05:24:00 PM 25.6786 -110.9475 130° Southeast  Level FlightAware Approximate
Sun 05:25:00 PM 25.6027 -110.8464 130° Southeast  Level FlightAware Approximate
Sun 05:26:00 PM 25.5268 -110.7455 130° Southeast  Level FlightAware Approximate
Sun 05:27:00 PM 25.4509 -110.6448 130° Southeast  Level FlightAware Approximate
Sun 05:28:00 PM 25.3748 -110.5441 130° Southeast  Level FlightAware Approximate
Sun 05:29:00 PM 25.2992 -110.4432 130° Southeast  Level FlightAware Approximate
Sun 05:30:00 PM 25.2235 -110.3423 130° Southeast  Level FlightAware Approximate
Sun 05:31:00 PM 25.1473 -110.2420 131° Southeast  Level FlightAware Approximate
Sun 05:32:00 PM 25.0697 -110.1431 131° Southeast  Level FlightAware Approximate
Sun 05:33:00 PM 24.9920 -110.0443 131° Southeast  Level FlightAware Approximate
Sun 05:34:00 PM 24.9224 -109.9391 138° Southeast  Level FlightAware Approximate
Sun 05:35:00 PM 24.8438 -109.8417 130° Southeast  Level FlightAware Approximate
Sun 05:36:00 PM 24.7607 -109.7496 142° Southeast  Level FlightAware Approximate
Sun 05:37:00 PM 24.6661 -109.6712 147° Southeast  Level FlightAware Approximate
Sun 05:38:00 PM 24.5664 -109.6007 147° Southeast  Level FlightAware Approximate
Sun 05:39:00 PM 24.4667 -109.5303 147° Southeast  Level FlightAware Approximate
Sun 05:40:00 PM 24.3664 -109.4609 149° Southeast  Level FlightAware Approximate
Sun 05:41:00 PM 24.2603 -109.4270 193° South  Level FlightAware Approximate
Sun 05:42:00 PM 24.1450 -109.4572 193° South  Level FlightAware Approximate
Sun 05:43:00 PM 24.0297 -109.4872 193° South  Level FlightAware Approximate
Sun 05:44:00 PM 23.9144 -109.5167 180° South  Level FlightAware Approximate
Sun 05:45:00 PM 23.7979 -109.5394 191° South  Level FlightAware Approximate
Sun 05:46:00 PM 23.6834 -109.5722 197° South  Level FlightAware Approximate
Sun 05:47:00 PM 23.5701 -109.6100 197° South  Level FlightAware Approximate
Sun 05:48:00 PM 23.4541 -109.6359 190° South  Level FlightAware Approximate
Sun 05:49:00 PM 23.3379 -109.6614 193° South  Level FlightAware Approximate
Sun 05:50:00 PM 23.2249 -109.6967 200° South  Level FlightAware Approximate
Sun 05:51:00 PM 23.1518 -109.7210 190° South  Level Estimated
Sun 05:52:00 PM 23.1518 -109.7210 190° South  Level Estimated
Sun 05:53:00 PM 23.1518 -109.7210 190° South  Level Estimated
Sun 05:54:00 PM 23.1518 -109.7210 190° South  Level Estimated
Sun 05:55:00 PM 23.1518 -109.7210 190° South  Level Estimated
Sun 05:56:00 PM 23.1518 -109.7210 190° South  Level Estimated
Sun 05:57:00 PM 23.1518 -109.7210 190° South  Level Estimated
Sun 05:58:00 PM 23.1518 -109.7210 190° South  Level Estimated
Sun 05:59:00 PM 23.1518 -109.7210 190° South  Level Estimated
Sun 06:00:00 PM 23.1518 -109.7210 190° South  Level Estimated
Sun 06:01:00 PM 23.1518 -109.7210 190° South  Level Estimated

Login

Don't have an account? Register now (free) for customized features, flight alerts, and more!